sensor_id;sensor_type;location;lat;lon;timestamp;temperature;humidity
57709;SHT35;42558;52.388;13.390;2022-08-02T00:00:35;18.12;75.46
57709;SHT35;42558;52.388;13.390;2022-08-02T00:03:02;17.95;76.11
57709;SHT35;42558;52.388;13.390;2022-08-02T00:05:29;17.84;76.59
57709;SHT35;42558;52.388;13.390;2022-08-02T00:07:56;17.82;76.81
57709;SHT35;42558;52.388;13.390;2022-08-02T00:10:22;17.91;76.46
57709;SHT35;42558;52.388;13.390;2022-08-02T00:12:49;18.03;76.00
57709;SHT35;42558;52.388;13.390;2022-08-02T00:15:18;18.16;75.41
57709;SHT35;42558;52.388;13.390;2022-08-02T00:17:45;18.18;75.41
57709;SHT35;42558;52.388;13.390;2022-08-02T00:20:14;18.05;75.78
57709;SHT35;42558;52.388;13.390;2022-08-02T00:22:41;17.99;76.00
57709;SHT35;42558;52.388;13.390;2022-08-02T00:25:09;17.98;76.04
57709;SHT35;42558;52.388;13.390;2022-08-02T00:27:35;17.99;75.99
57709;SHT35;42558;52.388;13.390;2022-08-02T00:30:03;18.11;75.46
57709;SHT35;42558;52.388;13.390;2022-08-02T00:32:30;18.25;75.08
57709;SHT35;42558;52.388;13.390;2022-08-02T00:34:57;18.34;74.68
57709;SHT35;42558;52.388;13.390;2022-08-02T00:37:24;18.37;74.67
57709;SHT35;42558;52.388;13.390;2022-08-02T00:39:51;18.40;74.54
57709;SHT35;42558;52.388;13.390;2022-08-02T00:42:17;18.37;74.44
57709;SHT35;42558;52.388;13.390;2022-08-02T00:44:45;18.31;74.83
57709;SHT35;42558;52.388;13.390;2022-08-02T00:47:12;18.27;75.16
57709;SHT35;42558;52.388;13.390;2022-08-02T00:49:45;18.21;75.42
57709;SHT35;42558;52.388;13.390;2022-08-02T00:52:12;18.18;75.62
57709;SHT35;42558;52.388;13.390;2022-08-02T00:54:40;18.19;75.35
57709;SHT35;42558;52.388;13.390;2022-08-02T00:57:07;18.25;74.92
57709;SHT35;42558;52.388;13.390;2022-08-02T00:59:34;18.35;74.45
57709;SHT35;42558;52.388;13.390;2022-08-02T01:02:00;18.34;74.78
57709;SHT35;42558;52.388;13.390;2022-08-02T01:04:27;18.24;75.44
57709;SHT35;42558;52.388;13.390;2022-08-02T01:06:58;18.15;75.78
57709;SHT35;42558;52.388;13.390;2022-08-02T01:09:26;18.09;75.63
57709;SHT35;42558;52.388;13.390;2022-08-02T01:11:53;18.05;75.58
57709;SHT35;42558;52.388;13.390;2022-08-02T01:14:20;18.00;75.53
57709;SHT35;42558;52.388;13.390;2022-08-02T01:16:51;17.99;75.23
57709;SHT35;42558;52.388;13.390;2022-08-02T01:19:50;18.02;74.88
57709;SHT35;42558;52.388;13.390;2022-08-02T01:28:35;18.37;73.84
57709;SHT35;42558;52.388;13.390;2022-08-02T01:31:07;18.32;73.25
57709;SHT35;42558;52.388;13.390;2022-08-02T01:33:43;18.24;73.54
57709;SHT35;42558;52.388;13.390;2022-08-02T01:36:18;18.18;73.49
57709;SHT35;42558;52.388;13.390;2022-08-02T01:38:49;18.11;73.51
57709;SHT35;42558;52.388;13.390;2022-08-02T01:41:23;18.06;73.70
57709;SHT35;42558;52.388;13.390;2022-08-02T01:43:54;18.07;73.64
57709;SHT35;42558;52.388;13.390;2022-08-02T01:46:26;18.15;73.29
57709;SHT35;42558;52.388;13.390;2022-08-02T01:48:55;18.18;72.96
57709;SHT35;42558;52.388;13.390;2022-08-02T01:51:28;18.13;73.28
57709;SHT35;42558;52.388;13.390;2022-08-02T01:54:17;18.12;73.08
57709;SHT35;42558;52.388;13.390;2022-08-02T01:56:50;18.07;72.22
57709;SHT35;42558;52.388;13.390;2022-08-02T01:59:20;18.05;72.79
57709;SHT35;42558;52.388;13.390;2022-08-02T02:01:50;18.09;72.79
57709;SHT35;42558;52.388;13.390;2022-08-02T02:04:20;18.14;72.57
57709;SHT35;42558;52.388;13.390;2022-08-02T02:06:48;18.14;71.25
57709;SHT35;42558;52.388;13.390;2022-08-02T02:09:18;18.11;71.40
57709;SHT35;42558;52.388;13.390;2022-08-02T02:11:47;18.10;71.10
57709;SHT35;42558;52.388;13.390;2022-08-02T02:14:36;18.08;71.03
57709;SHT35;42558;52.388;13.390;2022-08-02T02:17:04;17.99;72.45
57709;SHT35;42558;52.388;13.390;2022-08-02T02:19:53;17.90;72.77
57709;SHT35;42558;52.388;13.390;2022-08-02T02:22:23;17.89;72.93
57709;SHT35;42558;52.388;13.390;2022-08-02T02:24:52;17.96;72.30
57709;SHT35;42558;52.388;13.390;2022-08-02T02:27:20;18.06;71.83
57709;SHT35;42558;52.388;13.390;2022-08-02T02:29:50;18.12;71.63
57709;SHT35;42558;52.388;13.390;2022-08-02T02:32:22;18.18;71.73
57709;SHT35;42558;52.388;13.390;2022-08-02T02:34:52;18.25;71.65
57709;SHT35;42558;52.388;13.390;2022-08-02T02:37:22;18.27;71.52
57709;SHT35;42558;52.388;13.390;2022-08-02T02:39:52;18.27;71.70
57709;SHT35;42558;52.388;13.390;2022-08-02T02:42:22;18.26;71.90
57709;SHT35;42558;52.388;13.390;2022-08-02T02:44:57;18.28;71.75
57709;SHT35;42558;52.388;13.390;2022-08-02T02:47:26;18.24;71.16
57709;SHT35;42558;52.388;13.390;2022-08-02T02:50:07;18.10;71.87
57709;SHT35;42558;52.388;13.390;2022-08-02T02:52:36;17.87;72.60
57709;SHT35;42558;52.388;13.390;2022-08-02T02:55:06;17.81;72.68
57709;SHT35;42558;52.388;13.390;2022-08-02T02:57:36;17.77;72.38
57709;SHT35;42558;52.388;13.390;2022-08-02T03:00:07;17.72;72.14
57709;SHT35;42558;52.388;13.390;2022-08-02T03:02:37;17.70;72.26
57709;SHT35;42558;52.388;13.390;2022-08-02T03:05:07;17.65;72.36
57709;SHT35;42558;52.388;13.390;2022-08-02T03:07:36;17.60;72.23
57709;SHT35;42558;52.388;13.390;2022-08-02T03:10:05;17.59;72.27
57709;SHT35;42558;52.388;13.390;2022-08-02T03:12:33;17.59;72.26
57709;SHT35;42558;52.388;13.390;2022-08-02T03:15:05;17.62;72.40
57709;SHT35;42558;52.388;13.390;2022-08-02T03:17:37;17.61;72.29
57709;SHT35;42558;52.388;13.390;2022-08-02T03:20:12;17.61;72.66
57709;SHT35;42558;52.388;13.390;2022-08-02T03:22:45;17.67;72.53
57709;SHT35;42558;52.388;13.390;2022-08-02T03:25:14;17.66;72.23
57709;SHT35;42558;52.388;13.390;2022-08-02T03:27:42;17.69;71.77
57709;SHT35;42558;52.388;13.390;2022-08-02T03:30:10;17.68;71.78
57709;SHT35;42558;52.388;13.390;2022-08-02T03:32:39;17.69;72.40
57709;SHT35;42558;52.388;13.390;2022-08-02T03:35:13;17.76;72.41
57709;SHT35;42558;52.388;13.390;2022-08-02T03:37:49;17.85;72.21
57709;SHT35;42558;52.388;13.390;2022-08-02T03:40:21;17.90;71.72
57709;SHT35;42558;52.388;13.390;2022-08-02T03:42:50;17.81;71.81
57709;SHT35;42558;52.388;13.390;2022-08-02T03:45:19;17.70;72.57
57709;SHT35;42558;52.388;13.390;2022-08-02T03:47:48;17.61;72.96
57709;SHT35;42558;52.388;13.390;2022-08-02T03:50:16;17.61;73.04
57709;SHT35;42558;52.388;13.390;2022-08-02T03:52:48;17.63;72.93
57709;SHT35;42558;52.388;13.390;2022-08-02T03:55:16;17.58;72.94
57709;SHT35;42558;52.388;13.390;2022-08-02T03:57:43;17.54;72.80
57709;SHT35;42558;52.388;13.390;2022-08-02T04:00:11;17.52;72.92
57709;SHT35;42558;52.388;13.390;2022-08-02T04:02:44;17.52;73.09
57709;SHT35;42558;52.388;13.390;2022-08-02T04:05:12;17.56;72.97
57709;SHT35;42558;52.388;13.390;2022-08-02T04:07:40;17.55;72.82
57709;SHT35;42558;52.388;13.390;2022-08-02T04:10:28;17.56;72.88
57709;SHT35;42558;52.388;13.390;2022-08-02T04:12:55;17.53;72.87
57709;SHT35;42558;52.388;13.390;2022-08-02T04:15:23;17.50;73.04
57709;SHT35;42558;52.388;13.390;2022-08-02T04:17:54;17.50;72.79
57709;SHT35;42558;52.388;13.390;2022-08-02T04:20:29;17.59;73.21
57709;SHT35;42558;52.388;13.390;2022-08-02T04:23:03;17.66;73.11
57709;SHT35;42558;52.388;13.390;2022-08-02T04:25:35;17.73;73.12
57709;SHT35;42558;52.388;13.390;2022-08-02T04:28:07;17.78;73.09
57709;SHT35;42558;52.388;13.390;2022-08-02T04:30:44;17.81;72.65
57709;SHT35;42558;52.388;13.390;2022-08-02T04:33:13;17.79;72.54
57709;SHT35;42558;52.388;13.390;2022-08-02T04:35:41;17.80;72.55
57709;SHT35;42558;52.388;13.390;2022-08-02T04:38:11;17.75;72.78
57709;SHT35;42558;52.388;13.390;2022-08-02T04:40:41;17.81;72.62
57709;SHT35;42558;52.388;13.390;2022-08-02T04:43:17;17.77;72.65
57709;SHT35;42558;52.388;13.390;2022-08-02T04:45:45;17.75;72.79
57709;SHT35;42558;52.388;13.390;2022-08-02T04:48:16;17.68;73.00
57709;SHT35;42558;52.388;13.390;2022-08-02T04:50:44;17.62;73.35
57709;SHT35;42558;52.388;13.390;2022-08-02T04:53:11;17.65;73.51
57709;SHT35;42558;52.388;13.390;2022-08-02T04:55:38;17.73;73.42
57709;SHT35;42558;52.388;13.390;2022-08-02T04:58:05;17.72;73.44
57709;SHT35;42558;52.388;13.390;2022-08-02T05:00:51;17.71;73.57
57709;SHT35;42558;52.388;13.390;2022-08-02T05:03:18;17.73;73.74
57709;SHT35;42558;52.388;13.390;2022-08-02T05:05:45;17.79;73.70
57709;SHT35;42558;52.388;13.390;2022-08-02T05:08:12;17.89;73.32
57709;SHT35;42558;52.388;13.390;2022-08-02T05:10:39;17.91;73.22
57709;SHT35;42558;52.388;13.390;2022-08-02T05:13:05;18.02;73.27
57709;SHT35;42558;52.388;13.390;2022-08-02T05:15:32;18.14;72.77
57709;SHT35;42558;52.388;13.390;2022-08-02T05:17:59;18.25;72.68
57709;SHT35;42558;52.388;13.390;2022-08-02T05:20:26;18.26;73.06
57709;SHT35;42558;52.388;13.390;2022-08-02T05:22:53;18.38;73.01
57709;SHT35;42558;52.388;13.390;2022-08-02T05:25:20;18.61;72.78
57709;SHT35;42558;52.388;13.390;2022-08-02T05:27:46;18.82;72.28
57709;SHT35;42558;52.388;13.390;2022-08-02T05:30:13;19.02;71.34
57709;SHT35;42558;52.388;13.390;2022-08-02T05:32:44;19.19;70.10
57709;SHT35;42558;52.388;13.390;2022-08-02T05:35:18;19.16;66.74
57709;SHT35;42558;52.388;13.390;2022-08-02T05:37:47;19.15;66.40
57709;SHT35;42558;52.388;13.390;2022-08-02T05:40:16;19.45;66.95
57709;SHT35;42558;52.388;13.390;2022-08-02T05:42:51;19.68;62.61
57709;SHT35;42558;52.388;13.390;2022-08-02T05:45:21;19.78;61.79
57709;SHT35;42558;52.388;13.390;2022-08-02T05:47:48;19.90;61.22
57709;SHT35;42558;52.388;13.390;2022-08-02T05:50:15;19.86;59.24
57709;SHT35;42558;52.388;13.390;2022-08-02T05:52:44;19.98;59.79
57709;SHT35;42558;52.388;13.390;2022-08-02T05:55:17;19.90;59.82
57709;SHT35;42558;52.388;13.390;2022-08-02T06:00:52;19.97;60.74
57709;SHT35;42558;52.388;13.390;2022-08-02T06:03:33;19.97;60.02
57709;SHT35;42558;52.388;13.390;2022-08-02T06:06:12;19.98;59.73
57709;SHT35;42558;52.388;13.390;2022-08-02T06:08:44;19.89;60.34
57709;SHT35;42558;52.388;13.390;2022-08-02T06:11:21;19.85;60.90
57709;SHT35;42558;52.388;13.390;2022-08-02T06:13:50;19.89;60.97
57709;SHT35;42558;52.388;13.390;2022-08-02T06:16:19;19.94;61.31
57709;SHT35;42558;52.388;13.390;2022-08-02T06:18:58;20.21;61.86
57709;SHT35;42558;52.388;13.390;2022-08-02T06:21:26;20.70;61.05
57709;SHT35;42558;52.388;13.390;2022-08-02T06:24:15;21.15;59.21
57709;SHT35;42558;52.388;13.390;2022-08-02T06:26:45;21.24;58.24
57709;SHT35;42558;52.388;13.390;2022-08-02T06:29:17;21.21;58.48
57709;SHT35;42558;52.388;13.390;2022-08-02T06:31:50;21.15;59.28
57709;SHT35;42558;52.388;13.390;2022-08-02T06:34:18;21.27;59.19
57709;SHT35;42558;52.388;13.390;2022-08-02T06:39:44;20.96;58.86
57709;SHT35;42558;52.388;13.390;2022-08-02T06:42:20;21.22;59.39
57709;SHT35;42558;52.388;13.390;2022-08-02T06:44:54;21.75;58.19
57709;SHT35;42558;52.388;13.390;2022-08-02T06:47:23;21.55;57.09
57709;SHT35;42558;52.388;13.390;2022-08-02T06:49:51;21.54;58.04
57709;SHT35;42558;52.388;13.390;2022-08-02T06:52:23;21.43;59.36
57709;SHT35;42558;52.388;13.390;2022-08-02T06:54:56;21.61;59.05
57709;SHT35;42558;52.388;13.390;2022-08-02T06:57:26;22.08;57.85
57709;SHT35;42558;52.388;13.390;2022-08-02T06:59:54;22.27;57.51
57709;SHT35;42558;52.388;13.390;2022-08-02T07:02:21;21.60;59.90
57709;SHT35;42558;52.388;13.390;2022-08-02T07:04:49;21.92;59.80
57709;SHT35;42558;52.388;13.390;2022-08-02T07:07:16;22.12;58.73
57709;SHT35;42558;52.388;13.390;2022-08-02T07:09:44;22.43;59.17
57709;SHT35;42558;52.388;13.390;2022-08-02T07:12:30;22.89;58.31
57709;SHT35;42558;52.388;13.390;2022-08-02T07:14:59;22.47;58.00
57709;SHT35;42558;52.388;13.390;2022-08-02T07:17:30;22.55;58.77
57709;SHT35;42558;52.388;13.390;2022-08-02T07:19:58;22.57;58.28
57709;SHT35;42558;52.388;13.390;2022-08-02T07:22:26;22.74;58.86
57709;SHT35;42558;52.388;13.390;2022-08-02T07:24:54;22.77;58.67
57709;SHT35;42558;52.388;13.390;2022-08-02T07:27:24;22.84;57.99
57709;SHT35;42558;52.388;13.390;2022-08-02T07:29:51;23.04;57.23
57709;SHT35;42558;52.388;13.390;2022-08-02T07:32:20;22.32;57.61
57709;SHT35;42558;52.388;13.390;2022-08-02T07:34:51;21.76;60.05
57709;SHT35;42558;52.388;13.390;2022-08-02T07:37:21;22.06;59.15
57709;SHT35;42558;52.388;13.390;2022-08-02T07:40:10;22.80;59.51
57709;SHT35;42558;52.388;13.390;2022-08-02T07:42:45;23.47;57.11
57709;SHT35;42558;52.388;13.390;2022-08-02T07:45:13;23.94;54.20
57709;SHT35;42558;52.388;13.390;2022-08-02T07:47:41;23.93;53.04
57709;SHT35;42558;52.388;13.390;2022-08-02T07:50:13;23.82;53.67
57709;SHT35;42558;52.388;13.390;2022-08-02T07:52:42;24.13;53.38
57709;SHT35;42558;52.388;13.390;2022-08-02T07:55:11;24.31;52.18
57709;SHT35;42558;52.388;13.390;2022-08-02T07:57:40;23.92;52.18
57709;SHT35;42558;52.388;13.390;2022-08-02T08:00:12;24.35;53.31
57709;SHT35;42558;52.388;13.390;2022-08-02T08:02:41;24.56;50.67
57709;SHT35;42558;52.388;13.390;2022-08-02T08:05:10;24.30;51.96
57709;SHT35;42558;52.388;13.390;2022-08-02T08:07:37;24.17;52.51
57709;SHT35;42558;52.388;13.390;2022-08-02T08:10:05;24.64;51.80
57709;SHT35;42558;52.388;13.390;2022-08-02T08:12:34;24.69;50.91
57709;SHT35;42558;52.388;13.390;2022-08-02T08:15:01;24.37;51.83
57709;SHT35;42558;52.388;13.390;2022-08-02T08:17:29;24.43;50.00
57709;SHT35;42558;52.388;13.390;2022-08-02T08:19:56;24.35;49.65
57709;SHT35;42558;52.388;13.390;2022-08-02T08:22:23;24.02;50.78
57709;SHT35;42558;52.388;13.390;2022-08-02T08:24:50;23.74;50.80
57709;SHT35;42558;52.388;13.390;2022-08-02T08:27:17;23.56;51.17
57709;SHT35;42558;52.388;13.390;2022-08-02T08:29:48;23.69;52.15
57709;SHT35;42558;52.388;13.390;2022-08-02T08:32:15;23.67;51.67
57709;SHT35;42558;52.388;13.390;2022-08-02T08:34:47;23.64;51.46
57709;SHT35;42558;52.388;13.390;2022-08-02T08:37:16;24.07;50.23
57709;SHT35;42558;52.388;13.390;2022-08-02T08:39:44;24.47;50.12
57709;SHT35;42558;52.388;13.390;2022-08-02T08:42:23;24.80;49.42
57709;SHT35;42558;52.388;13.390;2022-08-02T08:44:51;25.03;48.51
57709;SHT35;42558;52.388;13.390;2022-08-02T08:47:20;25.34;46.49
57709;SHT35;42558;52.388;13.390;2022-08-02T08:49:50;25.08;46.72
57709;SHT35;42558;52.388;13.390;2022-08-02T08:52:22;24.83;47.36
57709;SHT35;42558;52.388;13.390;2022-08-02T08:54:52;24.87;47.77
57709;SHT35;42558;52.388;13.390;2022-08-02T08:57:24;25.30;47.06
57709;SHT35;42558;52.388;13.390;2022-08-02T08:59:54;25.55;47.25
57709;SHT35;42558;52.388;13.390;2022-08-02T09:02:22;25.23;47.16
57709;SHT35;42558;52.388;13.390;2022-08-02T09:04:53;25.56;47.09
57709;SHT35;42558;52.388;13.390;2022-08-02T09:07:21;24.92;47.04
57709;SHT35;42558;52.388;13.390;2022-08-02T09:09:49;24.79;48.56
57709;SHT35;42558;52.388;13.390;2022-08-02T09:12:16;25.15;48.44
57709;SHT35;42558;52.388;13.390;2022-08-02T09:14:47;25.01;47.61
57709;SHT35;42558;52.388;13.390;2022-08-02T09:17:16;23.65;49.06
57709;SHT35;42558;52.388;13.390;2022-08-02T09:19:46;24.10;50.46
57709;SHT35;42558;52.388;13.390;2022-08-02T09:22:13;25.19;48.87
57709;SHT35;42558;52.388;13.390;2022-08-02T09:24:42;25.52;46.94
57709;SHT35;42558;52.388;13.390;2022-08-02T09:27:15;25.93;46.71
57709;SHT35;42558;52.388;13.390;2022-08-02T09:29:49;25.32;45.98
57709;SHT35;42558;52.388;13.390;2022-08-02T09:32:46;24.99;47.32
57709;SHT35;42558;52.388;13.390;2022-08-02T09:38:33;24.32;47.91
57709;SHT35;42558;52.388;13.390;2022-08-02T09:41:03;24.36;48.62
57709;SHT35;42558;52.388;13.390;2022-08-02T09:43:36;24.12;47.83
57709;SHT35;42558;52.388;13.390;2022-08-02T09:46:29;24.00;47.83
57709;SHT35;42558;52.388;13.390;2022-08-02T09:48:59;24.05;49.67
57709;SHT35;42558;52.388;13.390;2022-08-02T09:51:30;24.68;48.33
57709;SHT35;42558;52.388;13.390;2022-08-02T09:54:16;25.57;46.14
57709;SHT35;42558;52.388;13.390;2022-08-02T09:56:49;25.73;46.16
57709;SHT35;42558;52.388;13.390;2022-08-02T09:59:23;25.53;45.73
57709;SHT35;42558;52.388;13.390;2022-08-02T10:01:52;25.24;45.65
57709;SHT35;42558;52.388;13.390;2022-08-02T10:04:29;25.08;46.16
57709;SHT35;42558;52.388;13.390;2022-08-02T10:07:00;24.93;46.57
57709;SHT35;42558;52.388;13.390;2022-08-02T10:09:30;24.86;47.09
57709;SHT35;42558;52.388;13.390;2022-08-02T10:11:58;24.64;47.65
57709;SHT35;42558;52.388;13.390;2022-08-02T10:14:28;24.75;47.40
57709;SHT35;42558;52.388;13.390;2022-08-02T10:16:56;24.43;46.97
57709;SHT35;42558;52.388;13.390;2022-08-02T10:19:24;24.31;48.41
57709;SHT35;42558;52.388;13.390;2022-08-02T10:22:12;24.37;47.62
57709;SHT35;42558;52.388;13.390;2022-08-02T10:24:45;24.41;48.43
57709;SHT35;42558;52.388;13.390;2022-08-02T10:27:17;25.37;47.16
57709;SHT35;42558;52.388;13.390;2022-08-02T10:29:47;25.97;45.65
57709;SHT35;42558;52.388;13.390;2022-08-02T10:32:25;25.50;44.50
57709;SHT35;42558;52.388;13.390;2022-08-02T10:37:51;25.42;46.17
57709;SHT35;42558;52.388;13.390;2022-08-02T10:40:23;25.57;44.92
57709;SHT35;42558;52.388;13.390;2022-08-02T10:42:54;25.14;44.80
57709;SHT35;42558;52.388;13.390;2022-08-02T10:45:26;25.31;45.99
57709;SHT35;42558;52.388;13.390;2022-08-02T10:48:02;25.49;45.20
57709;SHT35;42558;52.388;13.390;2022-08-02T10:53:21;26.38;45.00
57709;SHT35;42558;52.388;13.390;2022-08-02T10:55:57;26.92;44.63
57709;SHT35;42558;52.388;13.390;2022-08-02T10:58:31;26.76;42.52
57709;SHT35;42558;52.388;13.390;2022-08-02T11:01:28;25.84;44.14
57709;SHT35;42558;52.388;13.390;2022-08-02T11:04:05;25.12;46.04
57709;SHT35;42558;52.388;13.390;2022-08-02T11:06:54;25.12;45.99
57709;SHT35;42558;52.388;13.390;2022-08-02T11:09:36;24.67;46.12
57709;SHT35;42558;52.388;13.390;2022-08-02T11:12:05;24.71;46.63
57709;SHT35;42558;52.388;13.390;2022-08-02T11:14:41;25.05;46.97
57709;SHT35;42558;52.388;13.390;2022-08-02T11:17:24;25.58;46.36
57709;SHT35;42558;52.388;13.390;2022-08-02T11:22:36;25.81;43.42
57709;SHT35;42558;52.388;13.390;2022-08-02T11:27:52;26.25;44.36
57709;SHT35;42558;52.388;13.390;2022-08-02T11:30:25;26.50;42.87
57709;SHT35;42558;52.388;13.390;2022-08-02T11:32:56;26.01;43.41
57709;SHT35;42558;52.388;13.390;2022-08-02T11:35:36;26.01;44.17
57709;SHT35;42558;52.388;13.390;2022-08-02T11:38:18;26.18;43.07
57709;SHT35;42558;52.388;13.390;2022-08-02T11:40:47;26.24;43.08
57709;SHT35;42558;52.388;13.390;2022-08-02T11:43:23;26.43;42.95
57709;SHT35;42558;52.388;13.390;2022-08-02T11:45:52;26.42;42.80
57709;SHT35;42558;52.388;13.390;2022-08-02T11:48:28;26.00;43.46
57709;SHT35;42558;52.388;13.390;2022-08-02T11:53:52;26.26;42.94
57709;SHT35;42558;52.388;13.390;2022-08-02T11:56:27;26.23;41.25
57709;SHT35;42558;52.388;13.390;2022-08-02T12:01:35;25.90;41.92
57709;SHT35;42558;52.388;13.390;2022-08-02T12:04:14;26.01;42.09
57709;SHT35;42558;52.388;13.390;2022-08-02T12:06:52;25.99;42.65
57709;SHT35;42558;52.388;13.390;2022-08-02T12:09:22;25.98;43.69
57709;SHT35;42558;52.388;13.390;2022-08-02T12:11:49;25.92;43.41
57709;SHT35;42558;52.388;13.390;2022-08-02T12:14:16;26.14;43.64
57709;SHT35;42558;52.388;13.390;2022-08-02T12:16:45;26.37;43.15
57709;SHT35;42558;52.388;13.390;2022-08-02T12:19:32;26.33;41.47
57709;SHT35;42558;52.388;13.390;2022-08-02T12:22:08;26.03;41.53
57709;SHT35;42558;52.388;13.390;2022-08-02T12:24:53;25.86;42.98
57709;SHT35;42558;52.388;13.390;2022-08-02T12:30:15;26.06;40.53
57709;SHT35;42558;52.388;13.390;2022-08-02T12:32:53;26.05;40.83
57709;SHT35;42558;52.388;13.390;2022-08-02T12:35:38;26.29;41.26
57709;SHT35;42558;52.388;13.390;2022-08-02T12:38:09;26.41;41.39
57709;SHT35;42558;52.388;13.390;2022-08-02T12:40:37;26.46;40.65
57709;SHT35;42558;52.388;13.390;2022-08-02T12:43:05;26.37;41.24
57709;SHT35;42558;52.388;13.390;2022-08-02T12:45:51;26.14;40.89
57709;SHT35;42558;52.388;13.390;2022-08-02T12:48:30;26.09;42.20
57709;SHT35;42558;52.388;13.390;2022-08-02T12:51:25;26.18;41.89
57709;SHT35;42558;52.388;13.390;2022-08-02T12:54:23;26.65;41.34
57709;SHT35;42558;52.388;13.390;2022-08-02T12:57:08;26.81;40.66
57709;SHT35;42558;52.388;13.390;2022-08-02T12:59:41;26.99;39.41
57709;SHT35;42558;52.388;13.390;2022-08-02T13:02:14;26.82;38.47
57709;SHT35;42558;52.388;13.390;2022-08-02T13:04:43;26.62;38.83
57709;SHT35;42558;52.388;13.390;2022-08-02T13:07:16;26.44;38.91
57709;SHT35;42558;52.388;13.390;2022-08-02T13:09:44;26.60;38.75
57709;SHT35;42558;52.388;13.390;2022-08-02T13:12:16;26.61;38.65
57709;SHT35;42558;52.388;13.390;2022-08-02T13:14:44;26.33;39.28
57709;SHT35;42558;52.388;13.390;2022-08-02T13:17:10;26.20;39.29
57709;SHT35;42558;52.388;13.390;2022-08-02T13:19:38;26.28;40.63
57709;SHT35;42558;52.388;13.390;2022-08-02T13:22:06;26.54;39.98
57709;SHT35;42558;52.388;13.390;2022-08-02T13:24:37;26.75;39.05
57709;SHT35;42558;52.388;13.390;2022-08-02T13:27:21;26.90;39.42
57709;SHT35;42558;52.388;13.390;2022-08-02T13:29:50;27.10;40.15
57709;SHT35;42558;52.388;13.390;2022-08-02T13:32:20;27.22;35.42
57709;SHT35;42558;52.388;13.390;2022-08-02T13:34:48;26.93;35.72
57709;SHT35;42558;52.388;13.390;2022-08-02T13:37:16;26.82;37.70
57709;SHT35;42558;52.388;13.390;2022-08-02T13:39:43;26.92;37.92
57709;SHT35;42558;52.388;13.390;2022-08-02T13:42:30;26.79;35.48
57709;SHT35;42558;52.388;13.390;2022-08-02T13:44:58;26.70;36.75
57709;SHT35;42558;52.388;13.390;2022-08-02T13:47:27;26.74;36.31
57709;SHT35;42558;52.388;13.390;2022-08-02T13:50:02;26.81;36.65
57709;SHT35;42558;52.388;13.390;2022-08-02T13:52:31;26.78;36.90
57709;SHT35;42558;52.388;13.390;2022-08-02T13:54:59;26.89;38.31
57709;SHT35;42558;52.388;13.390;2022-08-02T13:57:26;27.14;38.56
57709;SHT35;42558;52.388;13.390;2022-08-02T13:59:54;27.54;39.37
57709;SHT35;42558;52.388;13.390;2022-08-02T14:02:25;27.61;36.96
57709;SHT35;42558;52.388;13.390;2022-08-02T14:04:53;27.74;37.32
57709;SHT35;42558;52.388;13.390;2022-08-02T14:07:21;27.85;37.33
57709;SHT35;42558;52.388;13.390;2022-08-02T14:09:48;27.80;35.79
57709;SHT35;42558;52.388;13.390;2022-08-02T14:12:15;27.71;36.40
57709;SHT35;42558;52.388;13.390;2022-08-02T14:14:43;27.75;35.83
57709;SHT35;42558;52.388;13.390;2022-08-02T14:17:10;27.81;35.77
57709;SHT35;42558;52.388;13.390;2022-08-02T14:19:37;27.90;36.16
57709;SHT35;42558;52.388;13.390;2022-08-02T14:22:05;27.86;36.04
57709;SHT35;42558;52.388;13.390;2022-08-02T14:24:36;27.84;36.43
57709;SHT35;42558;52.388;13.390;2022-08-02T14:27:04;27.77;35.62
57709;SHT35;42558;52.388;13.390;2022-08-02T14:29:31;27.64;35.72
57709;SHT35;42558;52.388;13.390;2022-08-02T14:31:59;27.37;36.25
57709;SHT35;42558;52.388;13.390;2022-08-02T14:34:27;27.39;35.90
57709;SHT35;42558;52.388;13.390;2022-08-02T14:36:54;27.27;37.08
57709;SHT35;42558;52.388;13.390;2022-08-02T14:39:22;27.50;37.01
57709;SHT35;42558;52.388;13.390;2022-08-02T14:41:49;27.49;37.61
57709;SHT35;42558;52.388;13.390;2022-08-02T14:44:25;27.50;36.60
57709;SHT35;42558;52.388;13.390;2022-08-02T14:46:53;27.31;36.99
57709;SHT35;42558;52.388;13.390;2022-08-02T14:49:21;27.46;37.84
57709;SHT35;42558;52.388;13.390;2022-08-02T14:51:55;27.73;37.15
57709;SHT35;42558;52.388;13.390;2022-08-02T14:54:23;27.97;36.42
57709;SHT35;42558;52.388;13.390;2022-08-02T14:57:01;28.32;36.69
57709;SHT35;42558;52.388;13.390;2022-08-02T14:59:29;28.71;35.81
57709;SHT35;42558;52.388;13.390;2022-08-02T15:01:57;28.56;36.05
57709;SHT35;42558;52.388;13.390;2022-08-02T15:04:25;28.47;35.16
57709;SHT35;42558;52.388;13.390;2022-08-02T15:06:52;28.60;36.54
57709;SHT35;42558;52.388;13.390;2022-08-02T15:09:20;28.86;35.46
57709;SHT35;42558;52.388;13.390;2022-08-02T15:11:47;28.74;35.61
57709;SHT35;42558;52.388;13.390;2022-08-02T15:14:18;28.61;35.59
57709;SHT35;42558;52.388;13.390;2022-08-02T15:16:54;28.50;35.97
57709;SHT35;42558;52.388;13.390;2022-08-02T15:19:28;28.14;36.99
57709;SHT35;42558;52.388;13.390;2022-08-02T15:22:16;28.36;36.22
57709;SHT35;42558;52.388;13.390;2022-08-02T15:24:44;28.55;36.21
57709;SHT35;42558;52.388;13.390;2022-08-02T15:27:11;28.47;36.29
57709;SHT35;42558;52.388;13.390;2022-08-02T15:29:40;28.44;36.35
57709;SHT35;42558;52.388;13.390;2022-08-02T15:32:09;28.35;36.50
57709;SHT35;42558;52.388;13.390;2022-08-02T15:34:38;28.24;36.96
57709;SHT35;42558;52.388;13.390;2022-08-02T15:37:05;28.05;37.70
57709;SHT35;42558;52.388;13.390;2022-08-02T15:39:33;27.89;37.46
57709;SHT35;42558;52.388;13.390;2022-08-02T15:42:00;27.82;37.13
57709;SHT35;42558;52.388;13.390;2022-08-02T15:44:27;27.89;38.47
57709;SHT35;42558;52.388;13.390;2022-08-02T15:46:54;27.57;38.11
57709;SHT35;42558;52.388;13.390;2022-08-02T15:49:21;27.37;37.89
57709;SHT35;42558;52.388;13.390;2022-08-02T15:51:51;27.56;37.90
57709;SHT35;42558;52.388;13.390;2022-08-02T15:54:19;27.43;37.28
57709;SHT35;42558;52.388;13.390;2022-08-02T15:56:46;27.36;38.36
57709;SHT35;42558;52.388;13.390;2022-08-02T15:59:13;27.53;37.77
57709;SHT35;42558;52.388;13.390;2022-08-02T16:01:41;27.50;38.04
57709;SHT35;42558;52.388;13.390;2022-08-02T16:04:13;27.57;38.68
57709;SHT35;42558;52.388;13.390;2022-08-02T16:06:42;27.76;37.85
57709;SHT35;42558;52.388;13.390;2022-08-02T16:09:09;27.86;37.18
57709;SHT35;42558;52.388;13.390;2022-08-02T16:11:37;27.97;38.30
57709;SHT35;42558;52.388;13.390;2022-08-02T16:14:04;27.97;37.50